Date,TemperatureHighF,TemperatureAvgF,TemperatureLowF,DewpointHighF,DewpointAvgF,DewpointLowF,HumidityHigh,HumidityAvg,HumidityLow,PressureMaxIn,PressureMinIn,WindSpeedMaxMPH,WindSpeedAvgMPH,GustSpeedMaxMPH,PrecipitationSumIn
2013-1-1,18,12,7,5,1,-4,77,62,43,0.00,40.00,8,4,15,0.00
2013-1-2,20,16,9,15,11,0,88,79,63,0.00,40.00,5,4,14,0.00
2013-1-3,25,20,15,18,14,11,88,77,58,0.00,40.00,10,5,21,0.00
2013-1-4,36,25,17,20,14,8,72,61,45,0.00,40.00,11,8,21,0.00
2013-1-5,33,22,11,24,16,8,88,76,62,0.00,40.00,7,3,17,0.00
2013-1-6,30,21,8,28,16,4,93,79,65,0.00,40.00,10,5,21,0.00
2013-1-7,35,24,10,21,15,6,86,70,51,0.00,40.00,9,6,26,0.00
2013-1-8,38,30,16,32,23,13,92,76,54,0.00,40.00,9,5,21,0.00
2013-1-9,35,32,26,30,23,18,82,70,57,0.00,40.00,13,8,29,0.00
2013-1-10,39,28,17,30,20,14,94,74,41,0.00,40.00,7,4,15,0.00
2013-1-11,39,36,33,38,34,28,98,96,80,0.00,40.00,10,5,22,0.00
2013-1-12,42,36,24,42,30,15,99,79,60,0.00,40.00,13,7,29,0.00
2013-1-13,24,19,14,15,11,7,74,69,63,0.00,40.00,7,5,15,0.00
2013-1-14,23,13,6,7,2,-3,79,63,40,0.00,40.00,8,5,15,0.00
2013-1-15,27,14,4,10,2,-3,74,60,35,0.00,40.00,8,5,21,0.00
2013-1-16,28,21,15,22,13,3,84,70,53,0.00,40.00,9,7,22,0.00
2013-1-17,15,4,-5,6,-5,-10,77,65,44,0.00,40.00,10,5,24,0.00
2013-1-18,15,7,-2,12,1,-9,87,79,72,0.00,40.00,6,4,11,0.00
2013-1-19,29,19,11,28,15,2,95,84,65,0.00,40.00,15,5,30,0.00
2013-1-20,11,4,-3,2,-5,-11,74,64,48,0.00,40.00,13,8,31,0.00
2013-1-21,-1,-6,-15,-11,-17,-23,70,59,41,0.00,40.00,12,7,24,0.00
2013-1-22,0,-9,-18,-15,-20,-26,67,59,44,0.00,40.00,8,5,20,0.00
2013-1-23,9,-1,-9,1,-10,-18,81,63,48,0.00,40.00,10,6,21,0.00
2013-1-24,13,5,-3,0,-6,-10,81,60,38,0.00,40.00,8,5,19,0.00
2013-1-25,18,11,6,11,5,-4,85,77,59,0.00,40.00,5,3,12,0.00
2013-1-26,21,18,14,13,11,9,86,75,62,0.00,40.00,8,5,15,0.00
2013-1-27,32,24,18,28,16,11,95,71,51,0.00,40.00,6,5,15,0.00
2013-1-28,34,30,28,31,28,27,96,93,85,0.00,40.00,6,3,12,0.00
2013-1-29,35,32,30,34,30,28,97,94,86,0.00,40.00,9,6,20,0.00
2013-1-30,32,22,13,28,18,9,93,85,79,0.00,40.00,14,9,27,0.00
2013-1-31,13,9,6,9,2,-1,84,72,64,0.00,40.00,11,7,23,0.00
2013-2-1,9,4,-2,0,-5,-11,75,66,53,0.00,40.00,9,5,19,0.00
2013-2-2,14,1,-6,-2,-8,-14,80,64,47,0.00,40.00,6,4,16,0.00
2013-2-3,12,5,-3,1,-4,-8,80,68,43,0.00,40.00,10,5,20,0.00
2013-2-4,14,1,-7,-3,-8,-13,78,68,45,0.00,40.00,6,3,15,0.00
2013-2-5,22,10,-3,13,2,-9,83,71,57,0.00,40.00,9,4,18,0.00
2013-2-6,24,11,-4,15,3,-9,88,72,42,0.00,40.00,5,2,9,0.00
2013-2-7,20,19,17,18,16,13,91,88,75,0.00,40.00,7,3,15,0.00
2013-2-8,24,16,2,15,9,-2,88,75,54,0.00,40.00,7,4,16,0.00
2013-2-9,27,15,-2,18,8,-7,84,77,61,0.00,40.00,9,4,22,0.00
2013-2-10,32,26,21,31,24,17,97,90,82,0.00,40.00,10,6,21,0.00
2013-2-11,33,28,18,32,26,13,98,90,77,0.00,40.00,12,6,26,0.00
2013-2-12,25,20,14,16,14,11,88,80,63,0.00,40.00,8,4,14,0.00
2013-2-13,40,25,14,26,19,11,94,79,53,0.00,40.00,5,3,10,0.00
2013-2-14,29,24,16,26,20,7,95,84,68,0.00,40.00,10,6,23,0.00
2013-2-15,18,13,2,9,3,-3,79,65,43,0.00,40.00,9,6,18,0.00
2013-2-16,17,8,0,2,-2,-5,80,66,44,0.00,40.00,9,5,16,0.00
2013-2-17,23,10,-6,1,-4,-12,79,57,32,0.00,40.00,7,4,13,0.00
2013-2-18,34,26,13,29,20,-1,96,79,53,0.00,40.00,9,5,20,0.00
2013-2-19,30,16,8,29,11,0,96,78,60,0.00,40.00,17,12,37,0.00
2013-2-20,15,11,8,7,5,2,82,76,70,0.00,40.00,13,10,28,0.00
2013-2-21,21,17,12,18,14,7,92,88,79,0.00,40.00,9,5,18,0.00
2013-2-22,22,19,15,20,17,12,92,90,88,0.00,40.00,7,4,15,0.00
2013-2-23,31,24,16,26,20,14,93,87,75,0.00,40.00,6,3,12,0.00
2013-2-24,31,27,24,23,22,20,90,81,66,0.00,40.00,6,4,14,0.00
2013-2-25,34,27,16,24,21,14,92,80,62,0.00,40.00,4,2,8,0.00
2013-2-26,33,29,26,27,24,22,94,82,65,0.00,40.00,6,3,14,0.00
2013-2-27,31,29,27,29,26,22,94,88,79,0.00,40.00,9,7,23,0.00
2013-2-28,29,25,21,27,20,15,93,83,74,0.00,40.00,11,8,26,0.00
2013-3-1,24,20,16,15,12,8,82,71,50,0.00,40.00,10,7,22,0.00
2013-3-2,23,17,10,13,9,3,85,70,52,0.00,40.00,9,5,16,0.00
2013-3-3,26,14,5,12,6,0,87,69,44,0.00,40.00,7,4,16,0.00
2013-3-4,31,17,4,17,9,0,88,74,48,0.00,40.00,5,2,13,0.00
2013-3-5,30,20,10,21,14,6,88,77,52,0.00,40.00,8,4,20,0.00
2013-3-6,30,26,19,26,21,12,94,83,69,0.00,40.00,7,4,13,0.00
2013-3-7,30,21,12,17,13,9,91,72,47,0.00,40.00,5,3,13,0.00
2013-3-8,40,24,9,21,15,6,91,71,39,0.00,40.00,9,4,17,0.00
2013-3-9,34,29,23,32,26,21,96,90,79,0.00,40.00,11,6,22,0.00
2013-3-10,35,33,30,34,30,26,98,91,81,0.00,40.00,10,6,22,0.00
2013-3-11,30,28,24,29,26,21,97,93,88,0.00,40.00,10,8,25,0.00
2013-3-12,24,19,16,21,14,10,90,80,64,0.00,40.00,8,6,19,0.00
2013-3-13,29,20,14,17,11,5,90,69,36,0.00,40.00,10,7,22,0.00
2013-3-14,41,24,8,21,10,4,86,60,28,0.00,40.00,7,4,14,0.00
2013-3-15,33,24,14,27,16,6,85,70,49,0.00,40.00,9,6,18,0.00
2013-3-16,24,18,13,14,10,6,87,72,45,0.00,40.00,8,4,16,0.00
2013-3-17,26,14,3,13,1,-5,86,58,35,0.00,40.00,8,5,25,0.00
2013-3-18,36,22,10,26,15,5,95,77,45,0.00,40.00,10,5,20,0.00
2013-3-19,27,23,18,26,16,11,95,74,55,0.00,40.00,15,9,33,0.00
2013-3-20,23,17,12,11,8,4,77,65,53,0.00,40.00,12,8,23,0.00
2013-3-21,24,20,14,15,12,9,82,71,57,0.00,40.00,10,7,20,0.00
2013-3-22,32,22,12,23,17,8,89,79,63,0.00,40.00,8,5,15,0.00
2013-3-23,31,26,23,23,20,17,89,76,63,0.00,40.00,8,4,13,0.00
2013-3-24,31,26,22,24,20,18,87,76,67,0.00,40.00,7,4,19,0.00
2013-3-25,34,28,22,24,22,19,90,78,60,0.00,40.00,9,6,21,0.00
2013-3-26,37,31,27,29,25,18,94,78,48,0.00,40.00,9,6,18,0.00
2013-3-27,44,32,24,20,18,13,78,59,31,0.00,40.00,10,6,18,0.00
2013-3-28,45,38,24,18,16,15,78,43,30,0.00,40.00,6,4,16,0.00
2013-3-29,52,34,18,18,15,12,83,51,21,0.00,40.00,5,3,13,0.00
2013-3-30,39,33,28,34,26,17,98,78,55,0.00,40.00,9,5,21,0.00
2013-3-31,41,33,23,34,24,-100,98,76,42,0.00,40.00,15,8,30,0.00
2013-4-1,27,21,17,17,9,4,81,61,38,0.00,40.00,11,7,25,0.00
2013-4-2,32,23,14,9,4,0,63,45,25,0.00,40.00,11,6,25,0.00
2013-4-3,42,28,15,12,6,3,62,42,20,0.00,40.00,8,5,17,0.00
2013-4-4,47,36,29,27,20,12,76,54,33,0.00,40.00,9,6,21,0.00
2013-4-5,37,30,24,19,14,10,68,52,34,0.00,40.00,6,5,19,0.00
2013-4-6,37,30,24,32,25,12,96,81,58,0.00,40.00,10,6,22,0.00
2013-4-7,37,33,28,32,29,26,98,85,68,0.00,40.00,9,5,19,0.00
2013-4-8,36,32,27,34,29,25,97,92,78,0.00,40.00,5,3,10,0.00
2013-4-9,38,33,29,36,30,22,98,90,75,0.00,40.00,9,4,20,0.00
2013-4-10,38,32,28,23,20,14,81,61,39,0.00,40.00,9,6,20,0.00
2013-4-11,34,30,26,24,17,4,92,59,28,0.00,40.00,10,6,24,0.00
2013-4-12,31,27,23,26,24,21,94,89,78,0.00,40.00,8,4,19,0.00
2013-4-13,36,28,18,28,22,16,93,81,67,0.00,40.00,8,4,15,0.00
2013-4-14,43,32,22,30,23,19,95,73,45,0.00,40.00,9,4,15,0.00
2013-4-15,55,40,31,38,30,21,97,71,37,0.00,40.00,12,7,27,0.00
2013-4-16,46,38,31,28,25,23,76,60,40,0.00,40.00,8,5,18,0.00
2013-4-17,42,34,26,30,28,24,93,78,55,0.00,40.00,8,3,13,0.00
2013-4-18,38,34,32,36,32,27,98,92,73,0.00,40.00,6,4,15,0.00
2013-4-19,34,30,20,34,27,15,98,88,71,0.00,40.00,16,7,32,0.00
2013-4-20,35,24,15,16,12,10,86,62,36,0.00,40.00,10,6,22,0.00
2013-4-21,43,30,16,27,18,11,85,63,34,0.00,40.00,11,6,26,0.00
2013-4-22,42,36,32,39,33,26,98,89,68,0.00,40.00,9,5,17,0.00
2013-4-23,39,34,30,33,30,25,98,88,70,0.00,40.00,9,5,19,0.00
2013-4-24,48,37,25,25,18,12,88,53,24,0.00,40.00,7,4,15,0.00
2013-4-25,48,38,30,32,25,17,97,66,30,0.00,40.00,8,4,19,0.00
2013-4-26,61,41,28,36,29,23,90,67,34,0.00,40.00,9,4,19,0.00
2013-4-27,69,51,33,47,39,32,97,68,35,0.00,40.00,6,3,16,0.00
2013-4-28,70,55,41,44,40,33,91,61,31,0.00,40.00,9,5,19,0.00
2013-4-29,67,55,44,52,45,33,97,70,49,0.00,40.00,8,3,15,0.01
2013-4-30,69,60,44,56,52,43,98,76,63,0.00,40.00,14,8,30,0.01
2013-5-1,58,51,37,50,42,29,97,75,52,0.00,40.00,8,4,21,0.31
2013-5-2,38,34,30,32,30,28,95,87,72,0.00,40.00,11,8,29,0.09
2013-5-3,37,32,30,34,31,29,97,94,87,0.00,40.00,9,7,23,0.24
2013-5-4,56,43,33,41,36,32,97,80,53,0.00,40.00,7,5,13,0.07
2013-5-5,60,44,34,39,35,32,96,75,45,0.00,40.00,6,4,11,0.01
2013-5-6,72,50,33,42,36,31,94,64,33,0.00,40.00,6,3,14,0.00
2013-5-7,78,56,39,41,33,23,90,52,14,0.00,40.00,8,3,26,0.00
2013-5-8,80,64,46,38,34,24,58,34,21,0.00,40.00,7,4,12,0.00
2013-5-9,52,44,34,40,36,32,95,76,55,0.00,40.00,8,5,21,0.05
2013-5-10,47,37,30,32,23,-100,92,66,36,0.00,40.00,8,5,20,0.08
2013-5-11,43,37,29,36,29,22,96,76,47,0.00,40.00,12,6,28,0.20
2013-5-12,40,33,28,31,22,-100,95,70,40,0.00,40.00,13,9,29,0.05
2013-5-13,59,41,28,27,20,17,71,46,20,0.00,40.00,9,5,18,0.03
2013-5-14,66,50,39,41,35,27,78,58,40,0.00,40.00,10,6,22,0.00
2013-5-15,74,60,42,44,37,30,84,50,20,0.00,40.00,13,8,27,0.00
2013-5-16,63,46,35,38,19,-100,89,58,36,0.00,40.00,7,4,17,0.00
2013-5-17,71,50,33,41,31,-100,96,62,28,0.00,40.00,7,3,15,0.00
2013-5-18,62,53,45,47,42,39,82,68,49,0.00,40.00,8,4,16,0.00
2013-5-19,81,64,49,61,54,44,92,70,47,0.00,40.00,8,4,20,0.04
2013-5-20,74,59,51,61,56,48,97,88,65,0.00,40.00,7,4,18,0.15
2013-5-21,69,56,47,60,55,47,99,94,71,0.00,40.00,7,4,16,0.68
2013-5-22,49,45,43,49,45,41,99,98,94,0.00,40.00,7,4,19,0.14
2013-5-23,47,40,35,41,31,27,94,72,46,0.00,40.00,12,8,26,0.14
2013-5-24,60,45,29,33,30,27,94,60,33,0.00,40.00,6,3,14,0.00
2013-5-25,67,49,31,36,31,28,93,56,26,0.00,40.00,5,2,14,0.00
2013-5-26,69,52,32,35,31,29,88,50,24,0.00,40.00,7,2,16,0.00
2013-5-27,69,54,37,39,34,28,83,50,24,0.00,40.00,9,4,21,0.00
2013-5-28,58,54,52,50,43,36,93,66,48,0.00,40.00,5,3,10,0.00
2013-5-29,80,62,52,59,54,50,97,79,42,0.00,40.00,6,4,15,0.00
2013-5-30,85,68,57,66,61,56,98,81,51,0.00,40.00,10,5,31,0.62
2013-5-31,79,67,59,63,60,57,99,81,47,0.00,40.00,9,6,20,0.68
2013-6-1,78,59,44,61,53,43,99,84,43,0.00,40.00,6,3,16,0.73
2013-6-2,57,44,37,42,36,-100,97,82,43,0.00,40.00,10,7,26,0.67
2013-6-3,61,47,31,37,33,28,98,65,32,0.00,40.00,10,3,21,0.01
2013-6-4,65,51,34,41,33,30,90,55,29,0.00,40.00,5,2,11,0.00
2013-6-5,53,50,47,48,45,40,94,82,67,0.00,40.00,5,2,10,0.05
2013-6-6,57,50,46,46,44,39,98,82,50,0.00,40.00,4,2,10,0.16
2013-6-7,72,57,44,45,39,34,88,58,27,0.00,40.00,5,2,13,0.01
2013-6-8,74,59,44,50,41,34,80,55,27,0.00,40.00,5,2,13,0.00
2013-6-9,71,60,42,52,46,41,96,64,42,0.00,40.00,8,4,17,0.00
2013-6-10,78,68,58,64,56,49,86,65,49,0.00,40.00,7,4,17,0.00
2013-6-11,77,64,54,61,58,53,99,82,58,0.00,40.00,7,3,13,0.01
2013-6-12,80,65,48,57,50,47,99,65,34,0.00,40.00,5,2,15,0.01
2013-6-13,64,56,50,50,47,42,90,73,56,0.00,40.00,9,5,22,0.00
2013-6-14,73,59,41,42,37,32,89,48,22,0.00,40.00,5,3,12,0.00
2013-6-15,74,62,50,63,53,35,95,73,52,0.00,40.00,7,3,15,0.05
2013-6-16,78,66,55,61,54,46,99,70,34,0.00,40.00,11,5,27,0.01
2013-6-17,58,51,41,51,46,39,97,83,59,0.00,40.00,4,3,12,0.01
2013-6-18,70,54,37,42,38,35,95,61,30,0.00,40.00,5,2,13,0.00
2013-6-19,78,61,44,48,42,38,83,53,26,0.00,40.00,7,4,15,0.00
2013-6-20,77,62,52,64,54,47,90,74,53,0.00,40.00,4,2,9,0.14
2013-6-22,69,64,61,62,60,58,96,89,76,0.00,40.00,5,3,13,0.01
2013-6-23,84,68,60,70,64,59,99,87,56,0.00,40.00,9,4,18,0.01
2013-6-24,87,74,65,67,64,60,99,73,44,0.00,40.00,6,3,13,0.01
2013-6-25,90,75,63,66,61,57,97,68,34,0.00,40.00,5,2,10,0.01
2013-6-26,86,72,62,70,66,61,99,81,58,0.00,40.00,7,4,22,0.62
2013-6-27,80,68,60,69,64,59,99,89,62,0.00,40.00,7,3,23,1.29
2013-6-28,64,61,58,61,60,58,99,95,89,0.00,40.00,6,3,13,1.03
2013-6-29,70,61,51,58,53,41,99,76,46,0.00,40.00,7,4,17,0.06
2013-6-30,78,64,46,47,44,41,87,53,28,0.00,40.00,5,2,12,0.01
2013-7-1,70,60,46,51,46,37,82,60,38,0.00,40.00,5,2,16,0.00
2013-7-2,76,59,42,47,42,37,87,57,33,0.00,40.00,5,2,11,0.01
2013-7-3,80,65,48,52,46,41,90,58,26,0.00,40.00,6,2,18,0.01
2013-7-4,84,70,57,63,57,49,85,66,42,0.00,40.00,8,4,16,0.00
2013-7-5,86,74,61,62,59,55,92,63,36,0.00,40.00,7,4,20,0.00
2013-7-6,89,75,66,64,61,58,84,66,35,0.00,40.00,7,4,17,0.00
2013-7-7,85,72,60,70,65,59,97,81,58,0.00,40.00,6,2,10,0.21
2013-7-8,79,63,56,68,60,56,99,91,69,0.00,40.00,4,3,11,0.20
2013-7-9,75,65,57,68,63,57,99,94,75,0.00,40.00,6,3,13,0.11
2013-7-10,71,65,60,66,53,-100,99,70,48,0.00,40.00,11,8,24,0.11
2013-7-11,82,67,50,55,52,48,97,62,32,0.00,40.00,5,3,11,0.00
2013-7-12,83,69,55,62,57,53,97,69,41,0.00,40.00,7,4,19,0.00
2013-7-13,86,73,60,62,56,47,80,57,37,0.00,40.00,7,5,17,0.00
2013-7-14,88,75,61,65,60,56,83,61,40,0.00,40.00,6,4,16,0.00
2013-7-15,90,77,68,67,65,62,89,69,40,0.00,40.00,5,3,12,0.00
2013-7-16,91,86,69,76,73,66,89,65,49,0.00,40.00,6,4,16,0.01
2013-7-17,92,81,71,74,69,64,91,70,42,0.00,40.00,8,4,19,0.01
2013-7-18,84,77,69,75,71,68,98,84,70,0.00,40.00,9,4,25,0.55
2013-7-19,81,74,65,72,64,55,98,74,47,0.00,40.00,10,5,37,0.49
2013-7-20,67,60,47,57,48,-100,94,67,54,0.00,40.00,7,4,16,0.04
2013-7-21,69,55,42,53,48,41,98,79,53,0.00,40.00,5,2,11,0.00
2013-7-22,82,67,50,67,58,49,96,76,56,0.00,40.00,9,4,21,0.31
2013-7-23,66,58,52,59,49,42,93,73,45,0.00,40.00,10,6,28,0.31
2013-7-24,75,61,48,54,48,45,93,67,37,0.00,40.00,5,3,12,0.00
2013-7-25,77,64,54,60,55,52,98,76,47,0.00,40.00,7,4,26,1.61
2013-7-26,65,58,48,63,57,47,99,96,93,0.00,40.00,7,3,22,2.75
2013-7-27,59,52,46,49,46,44,96,82,60,0.00,40.00,7,3,13,0.01
2013-7-28,54,50,44,51,48,43,98,93,86,0.00,40.00,9,5,18,0.37
2013-7-29,74,59,49,53,50,48,99,75,43,0.00,40.00,6,3,14,0.01
2013-7-30,74,62,49,61,55,48,99,80,53,0.00,40.00,5,3,14,0.01
2013-7-31,79,67,59,62,59,56,97,77,51,0.00,40.00,8,3,17,0.00
2013-8-1,73,61,54,59,53,50,97,79,49,0.00,40.00,8,4,16,0.00
2013-8-2,72,63,54,56,53,49,96,72,47,0.00,40.00,7,4,16,0.04
2013-8-3,69,60,52,56,51,48,92,73,55,0.00,40.00,6,4,15,0.04
2013-8-4,72,59,46,51,48,45,98,70,39,0.00,40.00,5,2,10,0.00
2013-8-5,65,58,50,60,54,47,97,88,70,0.00,40.00,6,4,11,0.24
2013-8-6,76,65,60,64,61,59,99,88,59,0.00,40.00,5,3,12,0.08
2013-8-7,68,62,49,60,56,45,99,84,45,0.00,40.00,8,3,17,0.09
2013-8-8,72,59,48,56,50,45,96,75,45,0.00,40.00,5,3,15,0.08
2013-8-9,69,61,51,57,52,46,98,77,43,0.00,40.00,10,4,22,0.09
2013-8-10,75,61,49,54,50,48,98,71,39,0.00,40.00,5,3,12,0.01
2013-8-11,78,62,48,59,53,47,97,76,42,0.00,40.00,5,2,12,0.00
2013-8-12,74,60,47,59,54,44,98,82,52,0.00,40.00,7,3,19,0.06
2013-8-13,59,51,44,52,43,-100,97,78,53,0.00,40.00,7,4,19,0.01
2013-8-14,67,54,43,50,43,-100,97,74,48,0.00,40.00,7,3,13,0.01
2013-8-15,77,57,44,54,41,-100,95,65,35,0.00,40.00,8,3,13,0.00
2013-8-16,81,63,48,61,50,-100,97,70,41,0.00,40.00,4,2,20,0.00
2013-8-17,82,69,52,58,55,51,97,66,41,0.00,40.00,6,3,12,0.00
2013-8-18,81,68,58,59,55,-100,88,66,42,0.00,40.00,7,4,16,0.00
2013-8-19,83,67,58,64,54,-100,91,72,51,0.00,40.00,7,4,15,0.00
2013-8-20,86,74,63,67,64,62,95,74,48,0.00,40.00,7,4,17,0.00
2013-8-21,89,75,67,72,67,64,97,77,57,0.00,40.00,7,4,17,0.00
2013-8-22,79,68,52,67,55,45,97,69,30,0.00,40.00,6,3,16,0.01
2013-8-23,79,63,47,55,51,46,98,70,37,0.00,40.00,5,2,12,0.01
2013-8-24,81,69,58,58,57,54,90,68,46,0.00,40.00,7,4,18,0.00
2013-8-25,93,78,65,73,66,-100,91,70,49,0.00,40.00,9,6,22,0.00
2013-8-26,87,76,67,72,69,65,97,81,60,0.00,40.00,6,4,39,0.45
2013-8-27,80,71,69,71,69,68,99,93,74,0.00,40.00,4,2,10,0.12
2013-8-28,86,79,65,66,65,64,97,64,49,0.00,40.00,4,2,11,0.00
2013-8-29,87,73,62,71,65,61,98,80,47,0.00,40.00,5,2,13,0.05
2013-8-30,71,68,61,69,64,59,96,88,77,0.00,40.00,10,6,22,0.19
2013-8-31,80,67,58,64,61,57,99,83,56,0.00,40.00,5,3,10,0.02
2013-9-1,74,64,54,67,59,-100,98,86,64,0.00,40.00,11,5,25,0.93
2013-9-2,61,54,50,51,47,46,89,78,60,0.00,40.00,10,7,21,0.06
2013-9-3,75,60,49,55,50,47,96,72,40,0.00,40.00,6,5,16,0.00
2013-9-4,65,58,44,56,48,43,96,71,49,0.00,40.00,8,4,16,0.00
2013-9-5,72,55,40,51,44,39,98,72,40,0.00,40.00,5,2,11,0.00
2013-9-6,79,63,51,68,57,48,94,82,62,0.00,40.00,7,4,13,0.20
2013-9-7,80,66,55,69,62,52,98,89,69,0.00,40.00,7,4,15,0.20
2013-9-8,70,57,48,55,49,-100,98,79,48,0.00,40.00,6,2,10,0.00
2013-9-9,67,61,51,66,60,50,99,95,90,0.00,40.00,7,3,17,0.02
2013-9-10,79,70,64,70,65,61,99,88,62,0.00,40.00,7,3,13,0.05
2013-9-11,79,67,57,65,60,53,98,81,51,0.00,40.00,7,4,18,0.06
2013-9-12,58,54,46,53,50,43,96,87,75,0.00,40.00,8,5,22,0.07
2013-9-13,60,49,40,45,40,37,95,73,49,0.00,40.00,7,4,18,0.05
2013-9-14,69,54,40,50,44,38,95,73,46,0.00,40.00,10,4,18,0.00
2013-9-15,58,50,40,53,44,-100,95,84,74,0.00,40.00,7,4,18,0.09
2013-9-16,62,47,36,44,39,35,96,77,46,0.00,40.00,4,2,10,0.03
2013-9-17,67,52,36,50,43,35,96,76,44,0.00,40.00,7,4,17,0.00
2013-9-18,62,53,51,61,52,50,98,96,94,0.00,40.00,5,3,11,0.14
2013-9-19,74,66,62,69,65,61,99,96,83,0.00,40.00,6,4,14,0.45
2013-9-20,71,64,51,66,60,48,99,87,57,0.00,40.00,7,4,20,1.00
2013-9-21,51,47,41,48,41,36,97,80,61,0.00,40.00,8,5,17,0.03
2013-9-22,50,44,37,42,37,-100,97,80,61,0.00,40.00,4,2,9,0.03
2013-9-23,63,47,34,46,41,33,97,80,52,0.00,40.00,7,3,15,0.01
2013-9-24,69,55,45,52,48,44,97,80,52,0.00,40.00,5,3,11,0.01
2013-9-25,72,55,41,54,47,40,98,80,42,0.00,40.00,4,2,10,0.00
2013-9-26,73,54,37,52,46,36,98,80,41,0.00,40.00,6,2,14,0.00
2013-9-27,77,60,46,57,51,44,99,76,40,0.00,40.00,8,4,19,0.01
2013-9-28,73,62,52,59,53,44,98,75,50,0.00,40.00,13,7,31,0.17
2013-9-29,70,55,44,52,44,-100,95,73,34,0.00,40.00,6,3,13,0.18
2013-9-30,69,57,46,48,45,43,93,69,40,0.00,40.00,10,5,24,0.01
2013-10-1,61,59,57,48,37,35,69,44,40,0.00,40.00,4,3,11,0.00
2013-10-2,74,58,45,42,36,31,83,47,21,0.00,40.00,9,4,16,0.00
2013-10-3,62,54,47,52,48,42,96,82,67,0.00,40.00,4,2,12,0.15
2013-10-4,60,54,51,52,50,47,95,85,71,0.00,40.00,5,3,14,0.01
2013-10-5,53,50,48,50,48,47,98,95,79,0.00,40.00,5,3,12,0.69
2013-10-6,67,56,50,60,54,47,99,91,74,0.00,40.00,7,5,15,0.26
2013-10-7,56,48,39,47,40,36,95,77,51,0.00,40.00,10,6,21,0.01
2013-10-8,68,52,38,52,42,35,91,72,41,0.00,40.00,10,5,20,0.01
2013-10-9,74,61,48,51,48,46,94,68,39,0.00,40.00,7,5,18,0.00
2013-10-10,72,58,43,52,46,42,97,69,34,0.00,40.00,6,4,14,0.00
2013-10-11,69,55,47,55,50,47,99,83,51,0.00,40.00,9,4,19,0.00
2013-10-12,62,56,50,59,53,41,97,89,70,0.00,40.00,9,6,19,0.24
2013-10-13,56,47,35,43,38,-100,96,74,46,0.00,40.00,7,3,13,0.11
2013-10-14,59,43,32,40,34,29,96,74,40,0.00,40.00,4,1,10,0.00
2013-10-15,51,47,40,50,44,38,98,92,81,0.00,40.00,6,4,14,0.14
2013-10-16,51,46,41,50,43,35,98,92,78,0.00,40.00,9,5,20,0.10
2013-10-17,53,39,28,39,33,27,96,82,49,0.00,40.00,5,1,10,0.03
2013-10-18,46,42,37,43,39,35,96,91,83,0.00,40.00,5,3,13,0.11
2013-10-19,48,39,30,36,33,29,96,82,51,0.00,40.00,6,2,18,0.01
2013-10-20,45,37,32,36,32,-100,97,87,65,0.00,40.00,6,3,12,0.14
2013-10-21,39,35,29,34,29,19,97,80,57,0.00,40.00,10,6,22,0.20
2013-10-22,37,34,29,34,30,23,94,85,75,0.00,40.00,8,6,19,0.10
2013-10-23,39,33,28,28,25,22,87,74,55,0.00,40.00,10,5,20,0.01
2013-10-24,43,34,28,28,27,24,89,77,55,0.00,40.00,9,6,19,0.03
2013-10-25,42,35,28,30,26,21,94,73,47,0.00,40.00,9,6,25,0.04
2013-10-26,43,38,33,37,30,25,86,73,59,0.00,40.00,11,7,29,0.05
2013-10-27,45,37,32,33,27,-100,91,71,51,0.00,40.00,8,4,17,0.01
2013-10-28,38,31,21,33,21,-100,91,70,50,0.00,40.00,8,4,23,0.02
2013-10-29,36,27,19,29,21,16,94,79,50,0.00,40.00,4,2,10,0.00
2013-10-30,48,38,31,48,37,29,99,96,91,0.00,40.00,6,2,13,0.14
2013-10-31,52,49,46,52,49,45,99,99,98,0.00,40.00,7,2,14,0.68
2013-11-1,46,41,37,45,39,35,98,92,86,0.00,40.00,11,6,20,0.83
2013-11-2,38,35,33,35,32,29,97,89,74,0.00,40.00,7,3,15,0.10
2013-11-3,44,35,28,35,28,-100,95,80,61,0.00,40.00,7,4,13,0.02
2013-11-4,46,44,38,42,38,34,91,81,74,0.00,40.00,13,9,30,0.00
2013-11-5,53,44,35,42,33,26,94,68,36,0.00,40.00,7,4,15,0.00
2013-11-6,38,34,31,37,31,24,97,88,68,0.00,40.00,11,7,26,0.00
2013-11-7,35,32,30,29,25,23,87,77,65,0.00,40.00,8,6,16,0.00
2013-11-8,42,34,30,31,23,17,93,66,38,0.00,40.00,8,4,14,0.00
2013-11-9,38,36,33,37,32,-100,97,88,80,0.00,40.00,11,7,26,0.00
2013-11-10,38,34,32,32,28,24,92,76,59,0.00,40.00,9,6,21,0.00
2013-11-11,35,25,21,31,16,9,92,69,50,0.00,40.00,12,9,27,0.00
2013-11-12,27,22,16,13,9,4,75,58,47,0.00,40.00,10,7,21,0.00
2013-11-13,48,31,17,28,16,5,67,56,44,0.00,40.00,9,7,21,0.00
2013-11-14,40,35,30,30,28,25,88,74,63,0.00,40.00,7,4,14,0.00
2013-11-15,54,38,27,34,31,25,95,76,45,0.00,40.00,7,4,14,0.00
2013-11-16,49,39,31,48,36,-100,97,93,88,0.00,40.00,10,6,26,0.00
2013-11-17,53,49,38,51,46,31,97,91,77,0.00,40.00,14,6,34,0.00
2013-11-18,38,30,27,31,20,15,77,65,56,0.00,40.00,15,12,33,0.00
2013-11-19,34,26,16,25,16,12,85,65,43,0.00,40.00,8,5,17,0.00
2013-11-20,40,36,30,31,29,25,86,76,62,0.00,40.00,9,7,24,0.00
2013-11-21,37,34,28,34,32,24,96,92,82,0.00,40.00,9,4,18,0.00
2013-11-22,31,26,20,24,18,11,85,71,52,0.00,40.00,10,7,22,0.00
2013-11-23,20,11,6,11,1,-100,78,64,51,0.00,40.00,14,9,30,0.00
2013-11-24,20,13,7,3,0,-3,76,55,38,0.00,40.00,9,6,23,0.00
2013-11-25,33,28,20,24,17,2,73,62,44,0.00,40.00,9,6,19,0.00
2013-11-26,32,20,10,24,11,2,79,67,52,0.00,40.00,10,7,21,0.00
2013-11-27,23,17,11,17,13,5,87,83,71,0.00,40.00,8,5,24,0.00
2013-11-28,26,16,6,18,11,1,88,82,69,0.00,40.00,4,1,6,0.00
2013-11-29,25,16,3,18,10,-2,85,78,72,0.00,40.00,6,3,11,0.00
2013-11-30,32,27,22,25,20,-100,83,75,66,0.00,40.00,6,3,15,0.00
2013-12-1,32,30,28,28,26,24,92,87,78,0.00,40.00,5,3,9,0.00
2013-12-2,33,28,18,28,23,16,93,83,64,0.00,40.00,5,3,9,0.00
2013-12-3,28,24,21,21,20,18,90,83,75,0.00,40.00,6,4,11,0.00
2013-12-4,34,26,22,33,24,20,97,92,89,0.00,40.00,7,5,16,0.00
2013-12-5,36,21,7,35,12,-3,98,70,54,0.00,40.00,14,9,30,0.00
2013-12-6,17,7,0,1,-3,-6,75,64,48,0.00,40.00,9,6,21,0.00
2013-12-7,12,2,-4,-4,-9,-100,74,63,46,0.00,40.00,8,6,15,0.00
2013-12-8,12,1,-9,3,-7,-16,82,70,47,0.00,40.00,6,3,12,0.00
2013-12-9,17,8,-5,8,0,-14,85,70,55,0.00,40.00,11,5,23,0.00
2013-12-10,13,2,-8,-3,-9,-16,69,62,48,0.00,40.00,8,6,17,0.00
2013-12-11,8,-1,-7,-8,-12,-16,72,61,43,0.00,40.00,9,6,20,0.00
2013-12-12,14,2,-9,1,-9,-18,67,59,47,0.00,40.00,8,6,17,0.00
2013-12-13,13,6,2,2,-4,-7,74,63,48,0.00,40.00,7,5,19,0.00
2013-12-14,14,8,3,8,0,-100,84,74,56,0.00,40.00,5,2,8,0.00
2013-12-15,16,12,7,8,5,2,83,75,52,0.00,40.00,14,7,30,0.00
2013-12-16,18,9,-2,7,2,-7,81,73,56,0.00,40.00,7,4,16,0.00
2013-12-17,25,14,6,19,9,1,84,78,67,0.00,40.00,10,4,22,0.00
2013-12-18,16,14,11,7,5,3,74,67,59,0.00,40.00,7,4,17,0.00
2013-12-19,23,16,10,19,10,3,87,76,63,0.00,40.00,10,5,20,0.00
2013-12-20,24,19,16,16,15,13,88,83,71,0.00,40.00,4,2,10,0.00
2013-12-21,25,19,11,17,13,-100,89,81,70,0.00,40.00,4,1,8,0.00
2013-12-22,22,20,18,17,15,10,88,81,67,0.00,40.00,7,4,18,0.00
2013-12-23,18,15,10,15,10,4,87,81,75,0.00,40.00,6,4,13,0.00
2013-12-24,19,11,5,5,2,-1,80,67,45,0.00,40.00,6,4,11,0.00
2013-12-25,16,10,4,8,4,0,83,75,62,0.00,40.00,7,5,19,0.00
2013-12-26,15,9,-4,6,2,-9,83,73,56,0.00,40.00,6,3,12,0.00
2013-12-27,26,14,-5,23,10,-11,87,84,75,0.00,40.00,8,4,19,0.00
2013-12-28,33,30,26,30,26,-100,95,87,83,0.00,40.00,8,2,15,0.00
2013-12-29,29,10,-7,27,3,-13,94,74,55,0.00,40.00,12,8,25,0.00
2013-12-30,6,-3,-11,-7,-12,-19,73,63,53,0.00,40.00,5,4,9,0.00
2013-12-31,4,-4,-11,-10,-14,-18,71,62,45,0.00,40.00,10,5,21,0.00
2014-1-1,6,-4,-14,-7,-14,-22,72,64,50,0.00,40.00,7,4,13,0.00
2014-1-2,9,-2,-7,-5,-10,-14,75,66,50,0.00,40.00,9,5,19,0.00